Time,TemperatureF,DewpointF,PressureIn,WindDirection,WindDirectionDegrees,WindSpeedMPH,WindSpeedGustMPH,Humidity,HourlyPrecipIn,Conditions,Clouds,dailyrainin,SoftwareType,DateUTC
2013-02-02 00:00:00,44.0,29.3,30.14,WNW,294,0.0,1.0,56,0.00,,---,0.00,VWS V13.01,2013-02-02 08:00:00,
2013-02-02 00:30:00,43.7,29.5,30.15,WNW,294,0.0,3.0,57,0.00,,---,0.00,VWS V13.01,2013-02-02 08:30:00,
2013-02-02 01:00:00,42.5,28.8,30.16,NW,317,0.0,4.0,58,0.00,,---,0.00,VWS V13.01,2013-02-02 09:00:00,
2013-02-02 01:30:00,39.9,28.3,30.16,NW,317,0.0,4.0,63,0.00,,---,0.00,VWS V13.01,2013-02-02 09:30:00,
2013-02-02 02:00:00,40.4,29.2,30.16,NW,317,0.0,0.0,64,0.00,,---,0.00,VWS V13.01,2013-02-02 10:00:00,
2013-02-02 02:30:00,40.7,29.9,30.14,NW,317,0.0,1.0,65,0.00,,---,0.00,VWS V13.01,2013-02-02 10:30:00,
2013-02-02 03:00:00,41.1,30.7,30.14,NW,317,0.0,0.0,66,0.00,,---,0.00,VWS V13.01,2013-02-02 11:00:00,
2013-02-02 03:30:00,41.6,31.1,30.15,NW,317,0.0,0.0,66,0.00,,---,0.00,VWS V13.01,2013-02-02 11:30:00,
2013-02-02 04:00:00,41.1,30.6,30.16,NW,317,0.0,0.0,66,0.00,,---,0.00,VWS V13.01,2013-02-02 12:00:00,
2013-02-02 04:30:00,40.9,31.2,30.15,NW,317,0.0,1.0,68,0.00,,---,0.00,VWS V13.01,2013-02-02 12:30:00,
2013-02-02 05:00:00,41.1,31.0,30.15,NW,317,0.0,1.0,67,0.00,,---,0.00,VWS V13.01,2013-02-02 13:00:00,
2013-02-02 05:30:00,42.4,31.9,30.15,NW,317,0.0,1.0,66,0.00,,---,0.00,VWS V13.01,2013-02-02 13:30:00,
2013-02-02 06:00:00,43.1,32.2,30.16,NW,317,0.0,2.0,65,0.00,,---,0.00,VWS V13.01,2013-02-02 14:00:00,
2013-02-02 06:30:00,42.7,31.4,30.16,NW,316,0.0,3.0,64,0.00,,---,0.00,VWS V13.01,2013-02-02 14:30:00,
2013-02-02 07:00:00,42.8,32.2,30.18,WNW,298,0.0,5.0,66,0.00,,---,0.00,VWS V13.01,2013-02-02 15:00:00,
2013-02-02 07:30:00,44.0,32.2,30.18,SSW,201,4.0,6.0,63,0.00,,---,0.00,VWS V13.01,2013-02-02 15:30:00,
2013-02-02 08:00:00,42.9,32.3,30.20,ESE,120,0.0,8.0,66,0.00,,---,0.00,VWS V13.01,2013-02-02 16:00:00,
2013-02-02 08:30:00,43.9,33.3,30.19,ENE,77,0.0,4.0,66,0.00,,---,0.00,VWS V13.01,2013-02-02 16:30:00,
2013-02-02 09:00:00,46.9,34.2,30.19,ENE,76,0.0,3.0,61,0.00,,---,0.00,VWS V13.01,2013-02-02 17:00:00,
2013-02-02 09:30:00,52.1,34.5,30.20,ENE,77,0.0,0.0,51,0.00,,---,0.00,VWS V13.01,2013-02-02 17:30:00,
2013-02-02 10:00:00,55.4,33.9,30.18,ENE,77,0.0,0.0,44,0.00,,---,0.00,VWS V13.01,2013-02-02 18:00:00,
2013-02-02 10:30:00,56.5,33.7,30.20,ENE,77,0.0,0.0,42,0.00,,---,0.00,VWS V13.01,2013-02-02 18:30:00,
2013-02-02 11:00:00,57.6,33.5,30.19,ENE,77,1.0,4.0,40,0.00,,---,0.00,VWS V13.01,2013-02-02 19:00:00,
2013-02-02 11:30:00,58.0,33.8,30.17,ENE,76,1.0,4.0,40,0.00,,---,0.00,VWS V13.01,2013-02-02 19:30:00,
2013-02-02 12:00:00,59.5,33.2,30.17,East,97,2.0,6.0,37,0.00,,---,0.00,VWS V13.01,2013-02-02 20:00:00,
2013-02-02 12:30:00,61.4,32.8,30.13,ENE,76,2.0,5.0,34,0.00,,---,0.00,VWS V13.01,2013-02-02 20:30:00,
2013-02-02 13:00:00,63.5,33.9,30.13,ENE,76,0.0,4.0,33,0.00,,---,0.00,VWS V13.01,2013-02-02 21:00:00,
2013-02-02 13:30:00,64.9,32.8,30.13,ENE,57,0.0,5.0,30,0.00,,---,0.00,VWS V13.01,2013-02-02 21:30:00,
2013-02-02 14:00:00,64.6,31.6,30.11,ENE,57,0.0,0.0,29,0.00,,---,0.00,VWS V13.01,2013-02-02 22:00:00,
2013-02-02 14:30:00,65.2,30.4,30.09,NNW,338,4.0,6.0,27,0.00,,---,0.00,VWS V13.01,2013-02-02 22:30:00,
2013-02-02 15:00:00,65.0,29.5,30.10,North,0,1.0,7.0,26,0.00,,---,0.00,VWS V13.01,2013-02-02 23:00:00,
2013-02-02 15:30:00,64.7,29.0,30.10,NNW,331,0.0,6.0,26,0.00,,---,0.00,VWS V13.01,2013-02-02 23:30:00,
2013-02-02 16:00:00,64.6,29.9,30.10,NNW,331,0.0,3.0,27,0.00,,---,0.00,VWS V13.01,2013-02-03 00:00:00,
2013-02-02 16:30:00,64.4,29.7,30.10,NNW,332,0.0,0.0,27,0.00,,---,0.00,VWS V13.01,2013-02-03 00:30:00,
2013-02-02 17:00:00,63.9,29.3,30.10,NNW,331,0.0,0.0,27,0.00,,---,0.00,VWS V13.01,2013-02-03 01:00:00,
2013-02-02 17:30:00,62.8,29.2,30.11,NNW,331,0.0,0.0,28,0.00,,---,0.00,VWS V13.01,2013-02-03 01:30:00,
2013-02-02 18:00:00,61.4,30.5,30.10,WNW,282,0.0,0.0,31,0.00,,---,0.00,VWS V13.01,2013-02-03 02:00:00,
2013-02-02 18:30:00,60.9,30.9,30.12,SW,215,0.0,2.0,32,0.00,,---,0.00,VWS V13.01,2013-02-03 02:30:00,
2013-02-02 19:00:00,60.4,31.2,30.12,SSW,203,0.0,0.0,33,0.00,,---,0.00,VWS V13.01,2013-02-03 03:00:00,
2013-02-02 19:30:00,58.9,31.3,30.11,South,189,0.0,0.0,35,0.00,,---,0.00,VWS V13.01,2013-02-03 03:30:00,
2013-02-02 20:00:00,60.0,33.0,30.13,SE,145,0.0,6.0,36,0.00,,---,0.00,VWS V13.01,2013-02-03 04:00:00,
2013-02-02 20:30:00,60.4,37.8,30.12,SE,138,0.0,4.0,43,0.00,,---,0.00,VWS V13.01,2013-02-03 04:30:00,
2013-02-02 21:30:00,57.5,41.9,30.13,SW,217,0.0,5.0,56,0.00,,---,0.00,VWS V13.01,2013-02-03 05:30:00,
2013-02-02 22:00:00,56.5,42.4,30.12,SW,217,1.0,4.0,59,0.00,,---,0.00,VWS V13.01,2013-02-03 06:00:00,
2013-02-02 22:30:00,56.2,41.6,30.12,SW,217,1.0,5.0,58,0.00,,---,0.00,VWS V13.01,2013-02-03 06:30:00,
2013-02-02 23:00:00,55.8,42.1,30.10,West,262,0.0,5.0,60,0.00,,---,0.00,VWS V13.01,2013-02-03 07:00:00,
2013-02-02 23:30:00,55.4,43.4,30.10,WSW,253,5.0,6.0,64,0.00,,---,0.00,VWS V13.01,2013-02-03 07:30:00,